Time;durP1;ratioP1;P1;durP2;ratioP2;P2;SDS_P1;SDS_P2;PMS_P1;PMS_P2;Temp;Humidity;BMP_temperature;BMP_pressure;BME280_temperature;BME280_humidity;BME280_pressure;Samples;Min_cycle;Max_cycle;Signal;HPM_P1;HPM_P2
2022/03/05 00:00:10;;;;;;;;;;;-1.70;99.90;;;-2.77;79.39;95773.22;10489691;28;1854;-67
2022/03/05 00:05:14;;;;;;;;;;;-1.70;99.90;;;-2.79;79.86;95775.25;10485081;28;1874;-68
2022/03/05 00:10:18;;;;;;;;;;;-1.70;99.90;;;-2.72;80.06;95776.09;10490278;28;1834;-67
2022/03/05 00:15:23;;;;;;;;;;;-1.70;99.90;;;-2.86;80.55;95773.53;10486870;28;1914;-69
2022/03/05 00:20:27;;;;;;;;;;;-1.80;99.90;;;-2.88;81.47;95775.56;10502547;28;1842;-68
2022/03/05 00:25:30;;;;;;;;;;;;;;;-2.94;82.07;95781.56;10489246;28;1805;-68
2022/03/05 00:30:34;;;;;;;;;;;-1.80;99.90;;;-2.97;82.36;95780.13;10491525;28;1780;-68
2022/03/05 00:35:37;;;;;;;;;;;-1.90;99.90;;;-2.95;82.50;95782.56;10485675;28;1930;-67
2022/03/05 00:40:41;;;;;;;;;;;-1.90;99.90;;;-3.07;83.16;95779.63;10491922;28;1904;-67
2022/03/05 00:45:44;;;;;;;;;;;-1.90;99.90;;;-3.10;83.50;95772.94;10483313;28;1567;-68
2022/03/05 00:50:48;;;;;;;;;;;-2.10;99.90;;;-3.19;84.05;95770.63;10480743;28;1831;-67
2022/03/05 00:55:50;;;;;;;;;;;-2.10;99.90;;;-3.11;84.59;95775.78;10487941;28;2263;-67
2022/03/05 01:00:53;;;;;;;;;;;-2.10;99.90;;;-3.15;84.55;95764.81;10492439;28;1913;-68
2022/03/05 01:05:57;;;;;;;;;;;-2.20;99.90;;;-3.21;84.93;95767.38;10483316;28;1813;-68
2022/03/05 01:11:00;;;;;;;;;;;-2.20;99.90;;;-3.18;85.04;95762.56;10487475;28;2694;-68
2022/03/05 01:16:04;;;;;;;;;;;-2.00;99.90;;;-3.22;85.61;95761.31;10479912;28;1922;-68
2022/03/05 01:21:07;;;;;;;;;;;-2.20;99.90;;;-3.27;85.54;95764.47;10477372;28;1790;-67
2022/03/05 01:26:10;;;;;;;;;;;-2.00;99.90;;;-3.37;86.45;95774.50;10490744;28;1861;-68
2022/03/05 01:31:14;;;;;;;;;;;-2.30;99.90;;;-3.53;87.05;95764.22;10506371;22;2513;-70
2022/03/05 01:36:19;;;;;;;;;;;-2.40;99.90;;;-3.45;87.22;95764.09;10479861;28;2011;-70
2022/03/05 01:41:22;;;;;;;;;;;-2.50;99.90;;;-3.57;87.17;95765.59;10493049;28;1891;-69
2022/03/05 01:46:26;;;;;;;;;;;-2.50;99.90;;;-3.59;87.61;95762.34;10477542;28;1895;-71
2022/03/05 01:51:29;;;;;;;;;;;-2.60;99.90;;;-3.63;87.49;95761.06;10470594;28;1985;-69
2022/03/05 01:56:33;;;;;;;;;;;-2.60;99.90;;;-3.67;87.90;95767.72;10473032;28;1991;-69
2022/03/05 02:01:36;;;;;;;;;;;-2.70;99.90;;;-3.70;88.20;95762.81;10462577;28;1971;-70
2022/03/05 02:06:40;;;;;;;;;;;-2.70;99.90;;;-3.76;88.60;95760.91;10447340;28;1892;-70
2022/03/05 02:11:43;;;;;;;;;;;-2.80;99.90;;;-3.79;88.45;95750.81;10471859;28;1998;-70
2022/03/05 02:16:55;;;;;;;;;;;-2.40;99.90;;;-3.84;88.70;95754.78;10465905;28;1922;-69
2022/03/05 02:21:59;;;;;;;;;;;-2.40;99.90;;;-3.86;89.10;95746.28;10471498;28;2071;-70
2022/03/05 02:27:03;;;;;;;;;;;-2.60;99.90;;;-3.90;88.97;95754.72;10468434;28;2013;-72
2022/03/05 02:32:11;;;;;;;;;;;-2.70;99.90;;;-3.94;89.62;95754.28;10478784;28;1921;-70
2022/03/05 02:37:15;;;;;;;;;;;-2.90;99.90;;;-4.03;90.41;95750.09;10465725;28;1966;-71
2022/03/05 02:42:19;;;;;;;;;;;-2.80;99.90;;;-4.14;91.37;95743.50;10473413;28;1972;-70
2022/03/05 02:47:22;;;;;;;;;;;-3.00;99.90;;;-4.07;91.12;95733.13;10481988;28;1996;-69
2022/03/05 02:52:26;;;;;;;;;;;-2.90;99.90;;;-4.03;90.67;95739.59;10469070;28;1999;-70
2022/03/05 02:57:30;;;;;;;;;;;-2.90;99.90;;;-4.06;91.65;95732.13;10453130;28;1920;-70
2022/03/05 03:02:33;;;;;;;;;;;-3.00;99.90;;;-4.11;91.89;95727.41;10473088;28;1976;-71
2022/03/05 03:07:37;;;;;;;;;;;-3.00;99.90;;;-4.21;92.04;95724.25;10452189;28;1894;-70
2022/03/05 03:12:41;;;;;;;;;;;-3.10;99.90;;;-4.25;92.83;95720.38;10453042;28;2101;-70
2022/03/05 03:17:44;;;;;;;;;;;-3.00;99.90;;;-4.28;93.52;95719.91;10478614;28;2113;-70
2022/03/05 03:22:47;;;;;;;;;;;-3.20;99.90;;;-4.22;94.05;95724.44;10456489;28;2038;-71
2022/03/05 03:27:50;;;;;;;;;;;-3.20;99.90;;;-4.30;93.79;95716.66;10465965;28;2448;-71
2022/03/05 03:32:53;;;;;;;;;;;-3.10;99.90;;;-4.23;94.13;95718.38;10468713;28;1913;-70
2022/03/05 03:37:57;;;;;;;;;;;-3.10;99.90;;;-4.27;93.76;95711.03;10463228;28;1995;-70
2022/03/05 03:43:00;;;;;;;;;;;-3.20;99.90;;;-4.25;93.93;95719.56;10484323;28;2073;-71
2022/03/05 03:48:03;;;;;;;;;;;-3.20;99.90;;;-4.40;94.60;95709.06;10475000;28;2325;-71
2022/03/05 03:53:07;;;;;;;;;;;-3.20;99.90;;;-4.43;95.12;95720.75;10457837;28;2060;-71
2022/03/05 03:58:10;;;;;;;;;;;-3.30;99.90;;;-4.44;95.46;95724.38;10461575;28;1981;-71
2022/03/05 04:03:13;;;;;;;;;;;-3.40;99.90;;;-4.43;95.53;95733.03;10462155;28;2182;-70
2022/03/05 04:13:37;;;;;;;;;;;-3.40;99.90;;;-4.41;95.95;95729.22;10467460;28;1979;-70
2022/03/05 04:18:40;;;;;;;;;;;-3.30;99.90;;;-4.45;95.95;95735.84;10455677;28;1994;-69
2022/03/05 04:23:43;;;;;;;;;;;-3.40;99.90;;;-4.41;96.67;95744.97;10468215;28;1965;-70
2022/03/05 04:28:46;;;;;;;;;;;-3.30;99.90;;;-4.41;96.38;95752.03;10455154;28;2013;-70
2022/03/05 04:33:50;;;;;;;;;;;-3.40;99.90;;;-4.48;97.33;95749.31;10469223;28;1980;-70
2022/03/05 04:38:53;;;;;;;;;;;-3.40;99.90;;;-4.50;97.85;95748.69;10478396;28;1912;-69
2022/03/05 04:43:56;;;;;;;;;;;-3.50;99.90;;;-4.51;97.42;95752.31;10462171;28;2010;-69
2022/03/05 04:48:59;;;;;;;;;;;-3.50;99.90;;;-4.57;98.53;95755.66;10463957;28;2099;-70
2022/03/05 04:54:02;;;;;;;;;;;-3.40;99.90;;;-4.60;98.58;95753.38;10480135;28;1987;-70
2022/03/05 04:59:09;;;;;;;;;;;-3.60;99.90;;;-4.84;99.06;95746.56;10483279;28;1969;-69
2022/03/05 05:04:12;;;;;;;;;;;-3.60;99.90;;;-4.79;99.69;95752.09;10455886;28;2006;-69
2022/03/05 05:09:16;;;;;;;;;;;-3.60;99.90;;;-4.79;100.00;95753.91;10469597;28;1928;-70
2022/03/05 05:14:19;;;;;;;;;;;-3.70;99.90;;;-4.77;100.00;95751.91;10461329;28;2033;-70
2022/03/05 05:19:27;;;;;;;;;;;;;;;-4.78;100.00;95752.91;10471438;28;1916;-71
2022/03/05 05:24:30;;;;;;;;;;;-3.30;99.90;;;-4.80;100.00;95760.16;10455973;28;1990;-70
2022/03/05 05:29:34;;;;;;;;;;;;;;;-4.82;100.00;95759.53;10474518;28;1925;-68
2022/03/05 05:34:43;;;;;;;;;;;;;;;-4.82;100.00;95762.16;10470697;28;1988;-71
2022/03/05 05:39:51;;;;;;;;;;;;;;;-4.80;100.00;95758.34;10479047;28;1979;-69
2022/03/05 05:44:58;;;;;;;;;;;;;;;-4.83;100.00;95769.19;10449611;28;2069;-71
2022/03/05 05:50:02;;;;;;;;;;;;;;;-4.81;100.00;95766.41;10473332;28;1946;-70
2022/03/05 05:55:06;;;;;;;;;;;;;;;-4.79;100.00;95769.66;10456875;28;1975;-71
2022/03/05 06:00:09;;;;;;;;;;;;;;;-4.77;100.00;95783.38;10475108;28;1925;-70
2022/03/05 06:05:13;;;;;;;;;;;;;;;-4.78;100.00;95771.28;10470249;28;1995;-71
2022/03/05 06:10:17;;;;;;;;;;;;;;;-4.64;100.00;95775.75;10472667;28;1854;-71
2022/03/05 06:15:21;;;;;;;;;;;;;;;-4.64;100.00;95781.00;10449927;28;1913;-71
2022/03/05 06:20:27;;;;;;;;;;;;;;;-4.63;100.00;95786.06;10459100;28;2007;-71
2022/03/05 06:25:30;;;;;;;;;;;;;;;-4.53;100.00;95791.03;10474133;28;1958;-71
2022/03/05 06:30:37;;;;;;;;;;;;;;;-4.48;100.00;95793.13;10480866;28;1861;-71
2022/03/05 06:35:41;;;;;;;;;;;;;;;-4.36;100.00;95800.38;10471222;28;2485;-70
2022/03/05 06:40:45;;;;;;;;;;;;;;;-4.33;100.00;95801.00;10476556;28;2085;-69
2022/03/05 06:45:49;;;;;;;;;;;;;;;-4.03;100.00;95810.50;10463014;28;1924;-70
2022/03/05 06:50:53;;;;;;;;;;;;;;;-4.02;100.00;95811.31;10477446;28;2026;-70
2022/03/05 06:55:57;;;;;;;;;;;;;;;-3.95;99.53;95815.66;10480754;28;1989;-71
2022/03/05 07:01:01;;;;;;;;;;;;;;;-3.74;99.96;95816.75;10469485;28;1955;-70
2022/03/05 07:06:05;;;;;;;;;;;;;;;-3.76;98.80;95816.09;10480112;28;1953;-69
2022/03/05 07:11:08;;;;;;;;;;;;;;;-3.64;98.33;95815.44;10473565;28;2000;-70
2022/03/05 07:16:12;;;;;;;;;;;;;;;-3.40;97.80;95814.28;10466869;28;2052;-69
2022/03/05 07:21:16;;;;;;;;;;;;;;;-3.34;97.10;95818.00;10459815;28;1952;-69
2022/03/05 07:26:20;;;;;;;;;;;;;;;-3.41;98.16;95825.81;10479111;28;1920;-71
2022/03/05 07:31:24;;;;;;;;;;;;;;;-3.34;97.76;95818.81;10471936;28;1973;-69
2022/03/05 07:36:27;;;;;;;;;;;;;;;-3.15;97.45;95812.13;10459332;28;2003;-70
2022/03/05 07:41:31;;;;;;;;;;;;;;;-2.91;97.38;95823.28;10451535;28;2031;-71
2022/03/05 07:46:35;;;;;;;;;;;;;;;-2.76;96.30;95811.69;10478678;28;1978;-70
2022/03/05 07:51:38;;;;;;;;;;;;;;;-2.62;96.12;95812.59;10451572;28;1900;-70
2022/03/05 07:56:42;;;;;;;;;;;;;;;-2.55;95.40;95810.00;10505332;22;1891;-71
2022/03/05 08:01:45;;;;;;;;;;;;;;;-2.38;95.51;95806.09;10465474;28;2395;-72
2022/03/05 08:06:50;;;;;;;;;;;;;;;-2.12;94.21;95813.34;10477329;28;2095;-69
2022/03/05 08:11:54;;;;;;;;;;;;;;;-1.99;93.73;95813.44;10430670;28;1991;-70
2022/03/05 08:16:57;;;;;;;;;;;;;;;-1.73;92.99;95806.66;10437649;28;1906;-69
2022/03/05 08:22:02;;;;;;;;;;;;;;;-1.38;91.23;95810.06;10443558;28;2358;-69
2022/03/05 08:27:05;;;;;;;;;;;;;;;-1.18;89.63;95818.03;10428232;28;1853;-69
2022/03/05 08:32:10;;;;;;;;;;;;;;;-0.92;87.93;95822.53;10441262;28;1839;-69
2022/03/05 08:37:14;;;;;;;;;;;;;;;-0.77;87.06;95820.53;10445967;28;1959;-68
2022/03/05 08:42:19;;;;;;;;;;;0.00;99.90;;;-0.74;85.67;95822.78;10452122;28;2154;-70
2022/03/05 08:47:23;;;;;;;;;;;0.10;99.90;;;-0.52;84.97;95810.19;10443899;28;1846;-70
2022/03/05 08:52:28;;;;;;;;;;;0.20;99.90;;;-0.48;83.86;95811.41;10416550;28;1832;-70
2022/03/05 08:57:32;;;;;;;;;;;0.40;99.90;;;-0.29;84.57;95810.59;10448727;28;1960;-69
2022/03/05 09:02:35;;;;;;;;;;;0.50;99.90;;;0.07;81.90;95808.53;10438970;28;1877;-68
2022/03/05 09:07:38;;;;;;;;;;;0.70;99.90;;;0.14;79.85;95804.03;10442275;28;1838;-68
2022/03/05 09:12:42;;;;;;;;;;;0.90;99.90;;;0.13;78.62;95802.41;10444519;28;2269;-70
2022/03/05 09:17:45;;;;;;;;;;;1.00;99.90;;;0.69;77.04;95797.28;10465592;28;1906;-71
2022/03/05 09:22:48;;;;;;;;;;;1.30;99.90;;;0.48;74.52;95802.88;10441065;28;1967;-70
2022/03/05 09:27:52;;;;;;;;;;;1.50;99.90;;;0.49;72.01;95793.91;10460072;28;1885;-69
2022/03/05 09:32:56;;;;;;;;;;;1.50;99.90;;;0.66;70.62;95794.25;10443563;28;2190;-70
2022/03/05 09:37:59;;;;;;;;;;;1.50;99.90;;;1.22;66.96;95782.94;10442620;28;2847;-71
2022/03/05 09:43:02;;;;;;;;;;;1.90;99.90;;;1.44;63.72;95791.31;10468757;28;1937;-71
2022/03/05 09:48:06;;;;;;;;;;;2.10;99.90;;;1.84;62.03;95789.13;10446409;28;1861;-72
2022/03/05 09:53:09;;;;;;;;;;;2.40;99.90;;;1.84;60.03;95786.50;10439855;28;1865;-70
2022/03/05 09:58:13;;;;;;;;;;;2.60;99.90;;;1.22;61.70;95786.41;10469281;28;1887;-71
2022/03/05 10:03:16;;;;;;;;;;;2.30;99.90;;;1.71;59.31;95787.41;10450133;28;1830;-71
2022/03/05 10:08:20;;;;;;;;;;;2.50;99.90;;;1.52;57.98;95781.25;10440930;28;1890;-71
2022/03/05 10:13:28;;;;;;;;;;;2.30;99.90;;;1.88;56.42;95771.78;10439724;28;1785;-71
2022/03/05 10:18:32;;;;;;;;;;;2.70;99.90;;;1.88;54.46;95785.03;10447251;28;1918;-71
2022/03/05 10:23:36;;;;;;;;;;;2.80;99.90;;;2.23;52.34;95780.00;10430656;28;1840;-71
2022/03/05 10:28:41;;;;;;;;;;;3.00;99.90;;;2.50;53.62;95777.84;10448360;28;1803;-71
2022/03/05 10:33:44;;;;;;;;;;;3.20;99.90;;;2.94;55.14;95775.84;10451956;28;2058;-71
2022/03/05 10:38:48;;;;;;;;;;;3.40;99.90;;;2.71;57.15;95771.25;10435688;28;1988;-71
2022/03/05 10:43:51;;;;;;;;;;;3.40;99.90;;;2.84;55.55;95778.22;10432081;28;1828;-70
2022/03/05 10:48:54;;;;;;;;;;;3.60;99.90;;;2.50;55.16;95777.84;10450336;28;1847;-72
2022/03/05 10:53:57;;;;;;;;;;;3.20;99.90;;;2.46;54.38;95781.97;10437668;28;2364;-72
2022/03/05 10:59:01;;;;;;;;;;;3.30;99.90;;;2.47;52.98;95772.16;10428549;28;1977;-70
2022/03/05 11:04:04;;;;;;;;;;;3.40;99.90;;;2.55;51.80;95766.56;10447639;28;1897;-73
2022/03/05 11:09:08;;;;;;;;;;;3.50;99.90;;;2.41;51.11;95779.16;10432461;28;1958;-71
2022/03/05 11:14:11;;;;;;;;;;;3.50;99.90;;;1.98;51.92;95772.09;10447753;28;1962;-71
2022/03/05 11:19:15;;;;;;;;;;;3.10;99.90;;;1.72;52.71;95761.72;10453142;28;1980;-71
2022/03/05 11:24:19;;;;;;;;;;;2.70;99.90;;;1.76;51.66;95761.09;10447068;28;2018;-71
2022/03/05 11:29:23;;;;;;;;;;;2.80;99.90;;;1.54;50.51;95773.13;10446782;28;1831;-72
2022/03/05 11:34:27;;;;;;;;;;;2.60;99.90;;;1.51;49.10;95763.75;10455548;28;2038;-72
2022/03/05 11:39:31;;;;;;;;;;;2.50;99.90;;;2.04;48.69;95749.19;10448809;28;2397;-70
2022/03/05 11:44:34;;;;;;;;;;;2.60;99.90;;;2.76;45.99;95744.84;10431041;28;2026;-71
2022/03/05 11:49:38;;;;;;;;;;;3.30;99.90;;;2.65;46.61;95743.75;10445679;28;1931;-71
2022/03/05 11:54:41;;;;;;;;;;;3.60;99.90;;;2.25;46.99;95737.34;10446244;28;1985;-71
2022/03/05 11:59:44;;;;;;;;;;;3.30;99.90;;;1.87;48.01;95733.06;10448307;28;2113;-71
2022/03/05 12:04:48;;;;;;;;;;;2.90;99.90;;;2.16;47.28;95715.59;10430232;28;1965;-71
2022/03/05 12:09:51;;;;;;;;;;;2.90;99.90;;;2.66;45.96;95723.31;10442988;28;1951;-71
2022/03/05 12:14:55;;;;;;;;;;;3.20;99.90;;;2.97;43.84;95703.69;10428688;28;1975;-71
2022/03/05 12:19:59;;;;;;;;;;;;;;;3.32;41.92;95695.00;10427655;28;1922;-71
2022/03/05 12:25:03;;;;;;;;;;;;;;;3.20;41.86;95701.09;10420007;28;2384;-72
2022/03/05 12:30:06;;;;;;;;;;;;;;;2.66;42.25;95702.91;10448250;28;1895;-72
2022/03/05 12:35:10;;;;;;;;;;;;;;;2.76;42.34;95696.25;10429961;28;1788;-72
2022/03/05 12:40:14;;;;;;;;;;;;;;;3.37;42.43;95681.81;10427260;28;2058;-72
2022/03/05 12:45:17;;;;;;;;;;;4.20;99.90;;;3.37;41.66;95676.50;10442298;28;2070;-72
2022/03/05 12:50:20;;;;;;;;;;;4.20;99.90;;;2.96;43.94;95681.66;10453319;28;1933;-71
2022/03/05 12:55:23;;;;;;;;;;;4.00;99.90;;;3.34;42.23;95683.09;10441991;28;2149;-73
2022/03/05 13:00:26;;;;;;;;;;;4.20;99.90;;;3.46;41.73;95670.63;10446607;28;1922;-73
2022/03/05 13:05:30;;;;;;;;;;;4.30;99.90;;;3.23;41.86;95666.09;10426778;28;1979;-71
2022/03/05 13:10:33;;;;;;;;;;;4.10;99.90;;;2.92;41.68;95679.66;10445815;28;1869;-71
2022/03/05 13:15:37;;;;;;;;;;;4.10;99.90;;;3.14;41.10;95661.34;10446413;28;1875;-72
2022/03/05 13:20:40;;;;;;;;;;;4.00;99.90;;;3.31;41.31;95670.28;10446311;28;1967;-71
2022/03/05 13:25:44;;;;;;;;;;;4.10;99.90;;;3.40;40.99;95660.91;10443086;28;1904;-71
2022/03/05 13:30:48;;;;;;;;;;;4.20;99.90;;;3.51;40.27;95665.41;10427512;28;1988;-71
2022/03/05 13:35:52;;;;;;;;;;;4.40;99.90;;;3.73;39.84;95648.88;10439127;28;1964;-71
2022/03/05 13:40:55;;;;;;;;;;;;;;;3.80;39.31;95655.66;10444307;28;1581;-72
2022/03/05 13:45:59;;;;;;;;;;;;;;;3.92;39.29;95657.50;10433912;28;1469;-77
2022/03/05 13:51:02;;;;;;;;;;;4.70;94.40;;;3.60;39.98;95655.22;10449230;28;1994;-77
2022/03/05 13:56:05;;;;;;;;;;;4.80;94.40;;;3.51;39.73;95651.31;10448035;28;1914;-77
2022/03/05 14:01:08;;;;;;;;;;;4.50;94.60;;;3.77;39.42;95647.38;10478775;22;3525;-72
2022/03/05 14:06:11;;;;;;;;;;;4.50;94.40;;;4.09;39.33;95641.63;10483945;28;1937;-73
2022/03/05 14:11:14;;;;;;;;;;;5.00;94.70;;;4.44;39.24;95649.47;10471885;28;1932;-73
2022/03/05 14:16:17;;;;;;;;;;;5.10;98.00;;;4.13;39.48;95643.56;10484640;28;1969;-73
2022/03/05 14:21:20;;;;;;;;;;;5.20;99.90;;;3.61;40.80;95650.72;10472548;28;1903;-75
2022/03/05 14:26:27;;;;;;;;;;;4.80;99.90;;;3.41;41.03;95649.22;10476689;28;1843;-72
2022/03/05 14:31:52;;;;;;;;;;;4.40;99.90;;;2.85;42.02;95655.06;10481709;28;1822;-72
2022/03/05 14:36:55;;;;;;;;;;;4.10;99.90;;;2.94;42.43;95657.19;10453614;28;2357;-72
2022/03/05 14:42:04;;;;;;;;;;;3.80;99.90;;;3.20;42.56;95641.84;10468100;28;1806;-72
2022/03/05 14:47:07;;;;;;;;;;;4.00;99.90;;;3.45;41.37;95649.59;10474560;28;1850;-73
2022/03/05 14:52:10;;;;;;;;;;;4.30;99.90;;;3.61;40.92;95650.72;10458965;28;1997;-73
2022/03/05 14:57:13;;;;;;;;;;;4.40;99.90;;;3.24;42.89;95650.97;10475582;28;1906;-73
2022/03/05 15:02:16;;;;;;;;;;;4.30;99.90;;;3.17;43.29;95644.94;10483302;28;2261;-73
2022/03/05 15:07:20;;;;;;;;;;;4.10;99.90;;;2.87;44.01;95655.66;10465979;28;1851;-73
2022/03/05 15:12:23;;;;;;;;;;;3.90;99.90;;;2.81;43.74;95661.88;10488860;28;1974;-73
2022/03/05 15:17:26;;;;;;;;;;;3.80;99.90;;;2.73;43.85;95663.00;10462363;28;1915;-72
2022/03/05 15:22:30;;;;;;;;;;;3.80;99.90;;;2.81;44.84;95680.47;10461089;28;1825;-72
2022/03/05 15:27:34;;;;;;;;;;;3.70;99.90;;;2.62;46.75;95663.78;10464118;28;1843;-73
2022/03/05 15:32:37;;;;;;;;;;;3.50;99.90;;;2.37;47.22;95661.28;10466098;28;2320;-73
2022/03/05 15:37:40;;;;;;;;;;;3.30;99.90;;;2.44;47.13;95664.66;10478844;28;1894;-71
2022/03/05 15:42:43;;;;;;;;;;;3.40;99.90;;;2.50;47.27;95666.41;10481637;28;2076;-72
2022/03/05 15:47:46;;;;;;;;;;;3.40;99.90;;;2.45;47.38;95653.00;10478840;28;1882;-72
2022/03/05 15:52:49;;;;;;;;;;;3.50;99.90;;;2.34;47.31;95656.41;10489874;28;2081;-73
2022/03/05 15:57:52;;;;;;;;;;;3.30;99.90;;;2.22;47.12;95655.53;10483920;28;1983;-72
2022/03/05 16:02:56;;;;;;;;;;;3.20;99.90;;;2.06;47.61;95655.13;10485644;28;1866;-71
2022/03/05 16:07:59;;;;;;;;;;;3.10;99.90;;;1.81;48.38;95657.06;10470641;28;1842;-73
2022/03/05 16:13:02;;;;;;;;;;;3.00;99.90;;;1.61;47.19;95647.50;10480428;28;1950;-72
2022/03/05 16:18:05;;;;;;;;;;;2.70;99.90;;;1.67;46.67;95656.41;10475438;28;1981;-71
2022/03/05 16:23:08;;;;;;;;;;;2.60;99.90;;;1.69;46.30;95659.66;10466616;28;1939;-73
2022/03/05 16:28:11;;;;;;;;;;;2.70;99.90;;;1.57;46.72;95662.22;10460893;28;1866;-71
2022/03/05 16:33:14;;;;;;;;;;;2.60;99.90;;;1.60;47.11;95658.31;10481827;28;1850;-72
2022/03/05 16:38:22;;;;;;;;;;;2.50;99.90;;;1.56;47.23;95667.72;10454184;28;1902;-70
2022/03/05 16:43:26;;;;;;;;;;;2.50;99.90;;;1.56;48.37;95652.66;10454862;28;1907;-71
2022/03/05 16:48:29;;;;;;;;;;;2.60;99.90;;;1.55;50.17;95666.94;10451199;28;1846;-73
2022/03/05 16:53:33;;;;;;;;;;;2.60;99.90;;;1.44;52.02;95672.94;10485496;28;2136;-71
2022/03/05 16:58:36;;;;;;;;;;;2.60;99.90;;;1.29;53.96;95667.19;10467691;28;1906;-72
2022/03/05 17:03:39;;;;;;;;;;;2.50;99.90;;;1.21;55.04;95675.38;10459512;28;1801;-72
2022/03/05 17:08:42;;;;;;;;;;;2.20;99.90;;;1.08;56.20;95677.16;10465314;28;1911;-70
2022/03/05 17:13:45;;;;;;;;;;;2.20;99.90;;;0.95;56.83;95679.06;10463627;28;1955;-73
2022/03/05 17:18:48;;;;;;;;;;;2.00;99.90;;;0.89;57.62;95691.34;10491399;28;1988;-73
2022/03/05 17:23:51;;;;;;;;;;;2.00;99.90;;;0.86;57.53;95686.47;10485755;28;1925;-70
2022/03/05 17:28:55;;;;;;;;;;;1.80;99.90;;;0.85;56.91;95698.09;10515426;28;1805;-71
2022/03/05 17:33:58;;;;;;;;;;;1.80;99.90;;;0.83;55.72;95692.19;10458134;28;1862;-71
2022/03/05 17:39:01;;;;;;;;;;;1.80;99.90;;;0.83;55.86;95705.44;10456464;28;1984;-72
2022/03/05 17:44:04;;;;;;;;;;;1.80;99.90;;;0.84;55.14;95704.41;10484323;28;1835;-72
2022/03/05 17:49:07;;;;;;;;;;;1.80;99.90;;;0.82;55.02;95698.50;10485392;28;1819;-72
2022/03/05 17:54:10;;;;;;;;;;;1.80;99.90;;;0.76;55.36;95715.22;10478167;28;1955;-72
2022/03/05 17:59:14;;;;;;;;;;;1.80;99.90;;;0.75;55.57;95708.31;10481222;28;1965;-71
2022/03/05 18:04:18;;;;;;;;;;;1.70;99.90;;;0.72;56.45;95714.84;10476034;28;1820;-71
2022/03/05 18:09:27;;;;;;;;;;;1.70;99.90;;;0.65;57.09;95716.75;10479849;28;1799;-72
2022/03/05 18:14:30;;;;;;;;;;;1.60;99.90;;;0.62;57.28;95716.34;10472578;28;3489;-72
2022/03/05 18:19:33;;;;;;;;;;;1.60;99.90;;;0.51;58.30;95721.28;10487742;28;3369;-72
2022/03/05 18:24:35;;;;;;;;;;;1.50;99.90;;;0.43;59.15;95726.81;10464517;28;1794;-71
2022/03/05 18:29:39;;;;;;;;;;;1.40;99.90;;;0.36;59.50;95733.97;10462508;28;3533;-71
2022/03/05 18:34:41;;;;;;;;;;;1.30;99.90;;;0.40;58.90;95734.38;10478127;28;1892;-71
2022/03/05 18:39:44;;;;;;;;;;;1.40;99.90;;;0.35;59.60;95737.63;10478859;28;2180;-71
2022/03/05 18:44:47;;;;;;;;;;;1.40;99.90;;;0.34;59.28;95735.22;10483579;28;1729;-71
2022/03/05 18:49:50;;;;;;;;;;;1.30;99.90;;;0.30;59.51;95734.00;10468053;28;1908;-71
2022/03/05 18:54:54;;;;;;;;;;;1.30;99.90;;;0.25;59.49;95745.19;10481573;28;2054;-71
2022/03/05 18:59:57;;;;;;;;;;;1.30;99.90;;;0.20;59.54;95747.69;10461758;28;1917;-71
2022/03/05 19:05:00;;;;;;;;;;;1.10;99.90;;;0.17;60.42;95751.53;10476405;28;1953;-71
2022/03/05 19:10:04;;;;;;;;;;;1.10;99.90;;;0.16;60.19;95751.75;10455674;28;1796;-70
2022/03/05 19:15:07;;;;;;;;;;;1.10;99.90;;;0.03;59.73;95754.44;10461251;28;1785;-70
2022/03/05 19:20:10;;;;;;;;;;;1.10;99.90;;;0.08;60.14;95750.16;10466032;28;1910;-70
2022/03/05 19:25:13;;;;;;;;;;;1.10;99.90;;;0.05;58.79;95753.19;10480311;28;1821;-69
2022/03/05 19:30:18;;;;;;;;;;;1.10;99.90;;;0.05;59.40;95765.59;10492045;28;1852;-68
2022/03/05 19:35:21;;;;;;;;;;;1.10;99.90;;;0.05;59.72;95757.69;10497573;28;1891;-70
2022/03/05 19:40:26;;;;;;;;;;;1.00;99.90;;;-0.03;60.50;95767.44;10482251;28;3603;-69
2022/03/05 19:45:30;;;;;;;;;;;1.10;99.90;;;-0.09;59.98;95768.28;10467566;28;3545;-69
2022/03/05 19:50:34;;;;;;;;;;;0.90;99.90;;;-0.17;61.22;95770.34;10489718;28;1932;-69
2022/03/05 19:55:38;;;;;;;;;;;0.90;99.90;;;-0.22;61.52;95772.78;10495550;28;3418;-69
2022/03/05 20:00:47;;;;;;;;;;;0.80;99.90;;;-0.29;62.54;95764.88;10492935;22;3400;-68
2022/03/05 20:05:50;;;;;;;;;;;0.80;99.90;;;-0.39;62.14;95772.41;10467737;28;1762;-68
2022/03/05 20:10:53;;;;;;;;;;;0.60;99.90;;;-0.44;62.47;95772.22;10482576;28;1884;-69
2022/03/05 20:15:56;;;;;;;;;;;0.50;99.90;;;-0.44;62.75;95766.94;10480516;28;1812;-66
2022/03/05 20:20:59;;;;;;;;;;;0.50;99.90;;;-0.49;63.40;95777.28;10476764;28;1923;-66
2022/03/05 20:26:02;;;;;;;;;;;0.50;99.90;;;-0.56;62.61;95772.81;10480610;28;2200;-69
2022/03/05 20:31:05;;;;;;;;;;;0.50;99.90;;;-0.64;63.24;95775.66;10461538;28;2292;-70
2022/03/05 20:36:09;;;;;;;;;;;0.30;99.90;;;-0.75;64.07;95784.19;10467675;28;1870;-68
2022/03/05 20:41:13;;;;;;;;;;;0.30;99.90;;;-0.86;63.74;95777.69;10480344;28;1973;-69
2022/03/05 20:46:16;;;;;;;;;;;0.20;99.90;;;-1.04;64.68;95780.09;10483294;28;1851;-69
2022/03/05 20:51:19;;;;;;;;;;;0.10;99.90;;;-1.13;64.97;95787.41;10463959;28;1851;-68
2022/03/05 20:56:22;;;;;;;;;;;-0.10;99.90;;;-1.26;65.75;95787.38;10461511;28;1899;-68
2022/03/05 21:01:25;;;;;;;;;;;-0.30;99.90;;;-1.39;66.45;95782.88;10460022;28;1918;-69
2022/03/05 21:06:34;;;;;;;;;;;-0.30;99.90;;;-1.49;66.73;95784.25;10472788;28;1764;-70
2022/03/05 21:11:38;;;;;;;;;;;-0.50;99.90;;;-1.58;67.60;95782.81;10460599;28;1940;-68
2022/03/05 21:16:42;;;;;;;;;;;-0.50;99.90;;;-1.67;68.31;95790.88;10476257;28;1810;-68
2022/03/05 21:21:46;;;;;;;;;;;-0.60;99.90;;;-1.77;69.98;95773.81;10460945;28;1942;-69
2022/03/05 21:26:49;;;;;;;;;;;-0.70;99.90;;;-1.86;69.37;95781.06;10474880;28;1733;-70
2022/03/05 21:31:53;;;;;;;;;;;-0.80;99.90;;;-1.93;70.57;95783.69;10469884;28;1816;-68
2022/03/05 21:36:56;;;;;;;;;;;-0.90;99.90;;;-1.99;71.26;95789.72;10455828;28;1733;-68
2022/03/05 21:41:59;;;;;;;;;;;-0.90;99.90;;;-2.09;71.24;95784.00;10484104;28;1917;-68
2022/03/05 21:47:02;;;;;;;;;;;-1.00;99.90;;;-2.11;72.14;95790.47;10477608;28;2077;-67
2022/03/05 21:52:06;;;;;;;;;;;-1.10;99.90;;;-2.16;72.63;95788.44;10478769;28;1875;-68
2022/03/05 21:57:09;;;;;;;;;;;-1.10;99.90;;;-2.24;73.98;95776.22;10477770;28;1842;-69
2022/03/05 22:02:13;;;;;;;;;;;-1.10;99.90;;;-2.22;74.52;95774.22;10475332;28;2035;-69
2022/03/05 22:07:17;;;;;;;;;;;-1.10;99.90;;;-2.30;75.88;95781.44;10450412;28;1907;-68
2022/03/05 22:12:20;;;;;;;;;;;-1.20;99.90;;;-2.25;76.01;95776.41;10481291;28;1672;-69
2022/03/05 22:17:24;;;;;;;;;;;-1.20;99.90;;;-2.26;76.46;95770.34;10479252;28;2031;-69
2022/03/05 22:22:27;;;;;;;;;;;-1.30;99.90;;;-2.31;77.41;95772.72;10475762;28;1989;-69
2022/03/05 22:27:31;;;;;;;;;;;-1.30;99.90;;;-2.31;78.04;95762.19;10474321;28;1807;-69
2022/03/05 22:32:35;;;;;;;;;;;-1.30;99.90;;;-2.38;79.28;95750.81;10485563;28;1543;-68
2022/03/05 22:37:38;;;;;;;;;;;-1.30;99.90;;;-2.37;79.42;95744.53;10489663;28;1785;-69
2022/03/05 22:42:44;;;;;;;;;;;-1.40;99.90;;;-2.39;80.50;95738.66;10493209;28;1902;-68
2022/03/05 22:47:48;;;;;;;;;;;-1.40;99.90;;;-2.43;81.15;95737.41;10479376;28;1885;-70
2022/03/05 22:52:50;;;;;;;;;;;-1.40;99.90;;;-2.59;82.63;95729.84;10490958;28;1870;-68
2022/03/05 22:57:54;;;;;;;;;;;-1.40;99.90;;;-2.61;83.70;95722.16;10482428;28;1731;-69
2022/03/05 23:13:39;;;;;;;;;;;-1.60;99.90;;;-2.62;85.09;95719.69;10488462;28;1949;-69
2022/03/05 23:18:42;;;;;;;;;;;-1.60;99.90;;;-2.66;85.67;95710.56;10493922;28;1909;-67
2022/03/05 23:23:46;;;;;;;;;;;-1.60;99.90;;;-2.68;86.21;95718.63;10468550;28;1740;-68
2022/03/05 23:28:49;;;;;;;;;;;-1.70;99.90;;;-2.79;87.83;95717.34;10483712;28;1663;-70
2022/03/05 23:33:53;;;;;;;;;;;-1.70;99.90;;;-2.79;88.04;95706.84;10488305;28;1558;-68
2022/03/05 23:38:57;;;;;;;;;;;-1.80;99.90;;;-2.78;88.29;95702.38;10508097;28;1981;-68
2022/03/05 23:44:00;;;;;;;;;;;-1.80;99.90;;;-2.80;88.31;95707.84;10488356;28;1548;-68
2022/03/05 23:49:03;;;;;;;;;;;-1.80;99.90;;;-2.89;88.71;95711.59;10498969;28;2087;-70
2022/03/05 23:54:06;;;;;;;;;;;-1.90;99.90;;;-2.89;88.90;95705.53;10493024;28;1546;-70
2022/03/05 23:59:09;;;;;;;;;;;-1.90;99.90;;;-2.93;89.15;95707.72;10463119;28;2028;-67
